Landfall Village, Minnesota
Current Conditions -  °F | °C
As of 4:31 PM on Sunday 23 Nov 2014 (Local Time) from K21D Reporting Station
Overcast Overcast  
Wind Chill: 38°   Ceiling: 4800
Heat Index: 41°   Visibility: 10mi
Dew Point: 37°   Wind: 5mph
Humidity: 87%   Direction: 340°NNW
Pressure: 29.38"   Gusts: NA
Location:  44.9915°N, 92.9659°W
Report Text: K21D 232231Z AUTO 34004KT 10SM SCT022 OVC048 05/03 A2938 RMK AO2
Loading
Personal Weather Stations






























Interactive Weather Map New forecast layout! Learn more

10-Day Weather Forecast

Advertisements
Track Severe Weather on mobile